Time,TemperatureF,DewpointF,PressureIn,WindDirection,WindDirectionDegrees,WindSpeedMPH,WindSpeedGustMPH,Humidity,HourlyPrecipIn,Conditions,Clouds,dailyrainin,SoftwareType,DateUTC
2013-07-08 00:05:00,73.5,70.0,29.85,SW,229,0.0,-999.0,88,-99.99,,,0.09,weatherlink.com 1.10,2013-07-08 04:05:00,
2013-07-08 00:20:00,73.5,70.0,29.84,SW,229,0.0,-999.0,88,-99.99,,,0.09,weatherlink.com 1.10,2013-07-08 04:20:00,
2013-07-08 00:35:00,73.3,70.0,29.84,SW,222,0.0,-999.0,89,-99.99,,,0.00,weatherlink.com 1.10,2013-07-08 04:35:00,
2013-07-08 00:50:00,73.3,70.0,29.84,SSW,209,0.0,-999.0,89,-99.99,,,0.00,weatherlink.com 1.10,2013-07-08 04:50:00,
2013-07-08 01:05:00,73.2,70.0,29.83,SW,222,0.0,-999.0,90,-99.99,,,0.00,weatherlink.com 1.10,2013-07-08 05:05:00,
2013-07-08 01:20:00,73.2,71.0,29.83,SW,230,3.0,-999.0,91,-99.99,,,0.00,weatherlink.com 1.10,2013-07-08 05:20:00,
2013-07-08 01:35:00,73.0,70.0,29.84,SW,226,3.0,-999.0,91,-99.99,,,0.00,weatherlink.com 1.10,2013-07-08 05:35:00,
2013-07-08 01:50:00,72.8,70.0,29.84,SW,223,0.0,-999.0,91,-99.99,,,0.00,weatherlink.com 1.10,2013-07-08 05:50:00,
2013-07-08 02:06:00,72.8,70.0,29.84,SW,233,0.0,-999.0,92,-99.99,,,0.00,weatherlink.com 1.10,2013-07-08 06:06:00,
2013-07-08 02:21:00,72.5,70.0,29.85,WSW,243,3.0,-999.0,92,-99.99,,,0.00,weatherlink.com 1.10,2013-07-08 06:21:00,
2013-07-08 02:36:00,72.5,70.0,29.84,SW,233,0.0,-999.0,92,-99.99,,,0.00,weatherlink.com 1.10,2013-07-08 06:36:00,
2013-07-08 02:51:00,72.3,70.0,29.84,WSW,243,0.0,-999.0,92,-99.99,,,0.00,weatherlink.com 1.10,2013-07-08 06:51:00,
2013-07-08 03:06:00,72.1,70.0,29.84,WSW,239,1.0,-999.0,92,-99.99,,,0.00,weatherlink.com 1.10,2013-07-08 07:06:00,
2013-07-08 03:21:00,72.1,70.0,29.84,WSW,239,0.0,-999.0,92,-99.99,,,0.00,weatherlink.com 1.10,2013-07-08 07:21:00,
2013-07-08 03:36:00,72.1,70.0,29.84,WSW,242,0.0,-999.0,92,-99.99,,,0.00,weatherlink.com 1.10,2013-07-08 07:36:00,
2013-07-08 03:51:00,72.0,70.0,29.84,WSW,238,0.0,-999.0,92,-99.99,,,0.00,weatherlink.com 1.10,2013-07-08 07:51:00,
2013-07-08 04:06:00,71.8,69.0,29.84,SW,236,0.0,-999.0,92,-99.99,,,0.00,weatherlink.com 1.10,2013-07-08 08:06:00,
2013-07-08 04:22:00,71.8,69.0,29.84,WSW,238,0.0,-999.0,92,-99.99,,,0.00,weatherlink.com 1.10,2013-07-08 08:22:00,
2013-07-08 04:36:00,71.6,69.0,29.84,SW,225,0.0,-999.0,92,-99.99,,,0.00,weatherlink.com 1.10,2013-07-08 08:36:00,
2013-07-08 04:51:00,71.5,69.0,29.84,SW,225,0.0,-999.0,92,-99.99,,,0.00,weatherlink.com 1.10,2013-07-08 08:51:00,
2013-07-08 05:06:00,71.5,69.0,29.84,SW,229,2.0,-999.0,92,-99.99,,,0.00,weatherlink.com 1.10,2013-07-08 09:06:00,
2013-07-08 05:21:00,71.3,69.0,29.84,SW,229,0.0,-999.0,92,-99.99,,,0.00,weatherlink.com 1.10,2013-07-08 09:21:00,
2013-07-08 05:36:00,71.3,69.0,29.84,SW,230,0.0,-999.0,92,-99.99,,,0.00,weatherlink.com 1.10,2013-07-08 09:36:00,
2013-07-08 05:51:00,71.5,69.0,29.84,SW,229,0.0,-999.0,93,-99.99,,,0.00,weatherlink.com 1.10,2013-07-08 09:51:00,
2013-07-08 06:06:00,71.8,69.0,29.84,SW,236,0.0,-999.0,92,-99.99,,,0.00,weatherlink.com 1.10,2013-07-08 10:06:00,
2013-07-08 06:21:00,72.0,70.0,29.84,WSW,242,0.0,-999.0,92,-99.99,,,0.00,weatherlink.com 1.10,2013-07-08 10:21:00,
2013-07-08 06:36:00,72.7,70.0,29.84,SW,223,2.0,-999.0,92,-99.99,,,0.00,weatherlink.com 1.10,2013-07-08 10:36:00,
2013-07-08 06:51:00,73.3,71.0,29.84,WSW,243,0.0,-999.0,91,-99.99,,,0.00,weatherlink.com 1.10,2013-07-08 10:51:00,
2013-07-08 07:06:00,74.4,71.0,29.84,SW,233,2.0,-999.0,88,-99.99,,,0.00,weatherlink.com 1.10,2013-07-08 11:06:00,
2013-07-08 07:21:00,75.6,71.0,29.84,SW,232,0.0,-999.0,84,-99.99,,,0.00,weatherlink.com 1.10,2013-07-08 11:21:00,
2013-07-08 07:36:00,77.2,70.0,29.84,North,356,0.0,-999.0,79,-99.99,,,0.00,weatherlink.com 1.10,2013-07-08 11:36:00,
2013-07-08 07:51:00,78.6,69.0,29.85,WNW,297,0.0,-999.0,73,-99.99,,,0.00,weatherlink.com 1.10,2013-07-08 11:51:00,
2013-07-08 08:06:00,79.6,69.0,29.85,West,280,9.0,-999.0,71,-99.99,,,0.00,weatherlink.com 1.10,2013-07-08 12:06:00,
2013-07-08 08:21:00,80.1,68.0,29.85,NNW,338,0.0,-999.0,67,-99.99,,,0.00,weatherlink.com 1.10,2013-07-08 12:21:00,
2013-07-08 08:36:00,80.7,67.0,29.85,SSW,205,1.0,-999.0,64,-99.99,,,0.00,weatherlink.com 1.10,2013-07-08 12:36:00,
2013-07-08 08:51:00,81.4,68.0,29.85,SW,230,3.0,-999.0,63,-99.99,,,0.00,weatherlink.com 1.10,2013-07-08 12:51:00,
2013-07-08 09:06:00,82.0,68.0,29.85,ESE,103,0.0,-999.0,62,-99.99,,,0.00,weatherlink.com 1.10,2013-07-08 13:06:00,
2013-07-08 09:21:00,82.2,66.0,29.85,SSW,209,0.0,-999.0,59,-99.99,,,0.00,weatherlink.com 1.10,2013-07-08 13:21:00,
2013-07-08 09:36:00,82.2,67.0,29.85,West,262,1.0,-999.0,60,-99.99,,,0.00,weatherlink.com 1.10,2013-07-08 13:36:00,
2013-07-08 09:51:00,83.2,68.0,29.86,NE,54,0.0,-999.0,60,-99.99,,,0.00,weatherlink.com 1.10,2013-07-08 13:51:00,
2013-07-08 10:06:00,84.3,68.0,29.85,WNW,287,0.0,-999.0,59,-99.99,,,0.00,weatherlink.com 1.10,2013-07-08 14:06:00,
2013-07-08 10:21:00,84.5,69.0,29.85,NW,305,0.0,-999.0,60,-99.99,,,0.00,weatherlink.com 1.10,2013-07-08 14:21:00,
2013-07-08 10:36:00,84.7,69.0,29.85,NNW,345,0.0,-999.0,59,-99.99,,,0.00,weatherlink.com 1.10,2013-07-08 14:36:00,
2013-07-08 10:51:00,84.5,69.0,29.86,North,7,8.0,-999.0,60,-99.99,,,0.00,weatherlink.com 1.10,2013-07-08 14:51:00,
2013-07-08 11:06:00,85.7,71.0,29.85,NNE,17,5.0,-999.0,61,-99.99,,,0.00,weatherlink.com 1.10,2013-07-08 15:06:00,
2013-07-08 11:21:00,86.5,71.0,29.86,NNE,16,0.0,-999.0,60,-99.99,,,0.00,weatherlink.com 1.10,2013-07-08 15:21:00,
2013-07-08 11:36:00,85.9,71.0,29.86,NNW,336,0.0,-999.0,61,-99.99,,,0.00,weatherlink.com 1.10,2013-07-08 15:36:00,
2013-07-08 11:51:00,85.9,71.0,29.86,ENE,65,0.0,-999.0,62,-99.99,,,0.00,weatherlink.com 1.10,2013-07-08 15:51:00,
2013-07-08 12:06:00,86.7,71.0,29.86,NNE,12,5.0,-999.0,60,-99.99,,,0.00,weatherlink.com 1.10,2013-07-08 16:06:00,
2013-07-08 12:21:00,87.4,71.0,29.86,NE,54,4.0,-999.0,58,-99.99,,,0.00,weatherlink.com 1.10,2013-07-08 16:21:00,
2013-07-08 12:36:00,88.0,71.0,29.86,North,2,5.0,-999.0,57,-99.99,,,0.00,weatherlink.com 1.10,2013-07-08 16:36:00,
2013-07-08 12:52:00,88.0,70.0,29.86,NNE,30,6.0,-999.0,56,-99.99,,,0.00,weatherlink.com 1.10,2013-07-08 16:52:00,
2013-07-08 13:07:00,87.8,71.0,29.86,NE,44,0.0,-999.0,57,-99.99,,,0.00,weatherlink.com 1.10,2013-07-08 17:07:00,
2013-07-08 13:22:00,88.4,70.0,29.86,North,356,1.0,-999.0,55,-99.99,,,0.00,weatherlink.com 1.10,2013-07-08 17:22:00,
2013-07-08 13:37:00,88.2,71.0,29.85,NE,43,0.0,-999.0,56,-99.99,,,0.00,weatherlink.com 1.10,2013-07-08 17:37:00,
2013-07-08 13:52:00,89.3,68.0,29.85,NW,305,3.0,-999.0,50,-99.99,,,0.00,weatherlink.com 1.10,2013-07-08 17:52:00,
2013-07-08 14:07:00,89.0,68.0,29.85,ESE,102,5.0,-999.0,50,-99.99,,,0.00,weatherlink.com 1.10,2013-07-08 18:07:00,
2013-07-08 15:07:00,77.4,69.0,29.87,SE,133,4.0,-999.0,74,-99.99,,,0.00,weatherlink.com 1.10,2013-07-08 19:07:00,
2013-07-08 15:22:00,77.0,69.0,29.87,SE,144,2.0,-999.0,75,-99.99,,,0.00,weatherlink.com 1.10,2013-07-08 19:22:00,
2013-07-08 16:07:00,76.8,69.0,29.87,SSE,147,7.0,-999.0,77,-99.99,,,0.00,weatherlink.com 1.10,2013-07-08 20:07:00,
2013-07-08 16:22:00,77.4,70.0,29.87,ENE,70,5.0,-999.0,77,-99.99,,,0.00,weatherlink.com 1.10,2013-07-08 20:22:00,
2013-07-08 16:37:00,77.9,69.0,29.88,ESE,108,8.0,-999.0,74,-99.99,,,0.00,weatherlink.com 1.10,2013-07-08 20:37:00,
2013-07-08 17:52:00,73.0,66.0,29.87,ESE,105,2.0,-999.0,79,-99.99,,,0.00,weatherlink.com 1.10,2013-07-08 21:52:00,
2013-07-08 18:52:00,73.0,68.0,29.89,ESE,109,5.0,-999.0,83,-99.99,,,0.00,weatherlink.com 1.10,2013-07-08 22:52:00,
2013-07-08 19:07:00,73.0,68.0,29.89,East,101,6.0,-999.0,83,-99.99,,,0.00,weatherlink.com 1.10,2013-07-08 23:07:00,
2013-07-08 19:37:00,-999.0,-99.9,29.89,North,-999,-999.0,-999.0,-999,-99.99,,,0.00,weatherlink.com 1.10,2013-07-08 23:37:00,
2013-07-08 20:07:00,-999.0,-99.9,29.90,North,-999,-999.0,-999.0,-999,-99.99,,,0.00,weatherlink.com 1.10,2013-07-09 00:07:00,
2013-07-08 20:22:00,-999.0,-99.9,29.91,North,-999,-999.0,-999.0,-999,-99.99,,,0.00,weatherlink.com 1.10,2013-07-09 00:22:00,
2013-07-08 20:37:00,-999.0,-99.9,29.91,North,-999,-999.0,-999.0,-999,-99.99,,,0.00,weatherlink.com 1.10,2013-07-09 00:37:00,
2013-07-08 20:52:00,-999.0,-99.9,29.92,North,-999,-999.0,-999.0,-999,-99.99,,,0.00,weatherlink.com 1.10,2013-07-09 00:52:00,
2013-07-08 21:07:00,-999.0,-99.9,29.93,North,-999,-999.0,-999.0,-999,-99.99,,,0.00,weatherlink.com 1.10,2013-07-09 01:07:00,
2013-07-08 21:22:00,-999.0,-99.9,29.93,North,-999,-999.0,-999.0,-999,-99.99,,,0.00,weatherlink.com 1.10,2013-07-09 01:22:00,
2013-07-08 21:38:00,-999.0,-99.9,29.93,ENE,72,3.0,-999.0,-999,-99.99,,,0.00,weatherlink.com 1.10,2013-07-09 01:38:00,
2013-07-08 21:53:00,-999.0,-99.9,29.94,North,-999,-999.0,-999.0,-999,-99.99,,,0.00,weatherlink.com 1.10,2013-07-09 01:53:00,
2013-07-08 22:23:00,67.6,-99.9,29.95,ESE,116,2.0,-999.0,-999,-99.99,,,0.00,weatherlink.com 1.10,2013-07-09 02:23:00,
2013-07-08 23:38:00,67.1,65.0,29.95,SE,143,0.0,-999.0,93,-99.99,,,0.00,weatherlink.com 1.10,2013-07-09 03:38:00,
2013-07-08 23:53:00,67.1,65.0,29.95,SE,125,2.0,-999.0,93,-99.99,,,0.00,weatherlink.com 1.10,2013-07-09 03:53:00,